ザグレブ の空港の天気 - METARとTAF

ザグレブ国際空港 ( LDZA / ZAG ) - クロアチア ザグレブ
飛行場実況気象(Metar)
観測時間04/24 18:00 CEST (04/24 16:00 UTC)
風向・風速西 5m/s
視程10km以上
天気現象
なし
気温23℃
湿度47%
気圧1014hPa
METARLDZA 241600Z 26009KT 240V300 CAVOK 23/11 Q1014 NOSIG
過去の天気等 Google飛行場航空写真 Wunderground天気予報

過去48時間のMETAR

飛行場予報(TAF)
発表時間: 4/24 13:25 CEST (4/24 11:25 UTC)
予報対象時間: 24日14時 CEST ~ 25日14時 CEST
風向・風速南西 5m/s
視程10km以上
少しの雲 雲底高度 1220m
24日14時 CEST ~ 24日21時 CEST に 確率 40% で一時的に
天気現象雷雨
少しの積乱雲 雲底高度 910m
24日17時 CEST ~ 24日19時 CEST に徐々に
風向・風速南西 3m/s
25日11時 CEST ~ 25日14時 CEST に一時的に
風向・風速南西 4m/s
TAF LDZA 241125Z 2412/2512 23010KT 9999 FEW040 TX23/2412Z TN10/2504Z
PROB40 TEMPO 2412/2419 TSRA FEW030CB
BECMG 2415/2417 23005KT
TEMPO 2509/2512 23008KT